createdAt,value
2018-09-22T00:00:11.378Z,1.10
2018-09-22T00:02:42.291Z,1.20
2018-09-22T00:05:13.182Z,1.27
2018-09-22T00:07:44.093Z,1.13
2018-09-22T00:10:14.878Z,0.90
2018-09-22T00:12:45.762Z,1.30
2018-09-22T00:15:16.858Z,1.10
2018-09-22T00:17:47.896Z,1.13
2018-09-22T00:20:18.761Z,1.00
2018-09-22T00:22:49.653Z,1.30
2018-09-22T00:25:20.513Z,1.37
2018-09-22T00:27:51.522Z,1.37
2018-09-22T00:30:22.382Z,1.43
2018-09-22T00:32:53.294Z,1.83
2018-09-22T00:35:24.201Z,1.47
2018-09-22T00:37:55.093Z,1.13
2018-09-22T00:40:25.992Z,1.30
2018-09-22T00:42:56.873Z,1.50
2018-09-22T00:45:27.732Z,1.37
2018-09-22T00:47:58.855Z,1.30
2018-09-22T00:50:29.733Z,1.30
2018-09-22T00:53:00.641Z,1.40
2018-09-22T00:55:31.517Z,1.50
2018-09-22T00:58:02.385Z,1.50
2018-09-22T01:00:33.234Z,1.40
2018-09-22T01:03:04.161Z,1.10
2018-09-22T01:05:35.022Z,1.20
2018-09-22T01:08:06.073Z,1.47
2018-09-22T01:10:36.921Z,1.50
2018-09-22T01:13:07.894Z,1.73
2018-09-22T01:15:39.056Z,1.43
2018-09-22T01:18:09.962Z,1.90
2018-09-22T01:20:40.828Z,2.80
2018-09-22T01:23:11.731Z,1.40
2018-09-22T01:25:42.573Z,1.40
2018-09-22T01:28:13.483Z,1.40
2018-09-22T01:30:44.500Z,1.37
2018-09-22T01:33:15.514Z,1.97
2018-09-22T01:35:46.420Z,1.20
2018-09-22T01:38:17.594Z,1.20
2018-09-22T01:40:48.401Z,1.30
2018-09-22T01:43:19.394Z,1.70
2018-09-22T01:45:50.301Z,1.60
2018-09-22T01:48:21.321Z,1.80
2018-09-22T01:50:52.933Z,1.40
2018-09-22T01:53:23.821Z,1.80
2018-09-22T01:55:54.741Z,2.00
2018-09-22T01:58:25.632Z,2.83
2018-09-22T02:00:56.501Z,2.03
2018-09-22T02:03:27.360Z,1.80
2018-09-22T02:05:58.225Z,1.93
2018-09-22T02:08:29.273Z,2.13
2018-09-22T02:11:00.155Z,2.83
2018-09-22T02:13:31.082Z,2.03
2018-09-22T02:16:01.973Z,2.20
2018-09-22T02:18:32.934Z,1.60
2018-09-22T02:21:03.761Z,1.50
2018-09-22T02:23:34.974Z,1.57
2018-09-22T02:26:05.865Z,1.73
2018-09-22T02:28:36.861Z,1.60
2018-09-22T02:31:07.714Z,1.60
2018-09-22T02:33:38.653Z,1.70
2018-09-22T02:36:09.577Z,1.83
2018-09-22T02:38:40.515Z,1.70
2018-09-22T02:41:11.421Z,1.73
2018-09-22T02:43:42.381Z,1.77
2018-09-22T02:46:13.261Z,1.60
2018-09-22T02:48:44.084Z,1.70
2018-09-22T02:51:14.927Z,1.73
2018-09-22T02:53:45.789Z,1.73
2018-09-22T02:56:16.621Z,1.50
2018-09-22T02:58:47.713Z,1.57
2018-09-22T03:01:18.613Z,1.27
2018-09-22T03:03:49.549Z,1.40
2018-09-22T03:06:20.357Z,1.43
2018-09-22T03:08:51.292Z,1.60
2018-09-22T03:11:22.141Z,1.40
2018-09-22T03:13:53.012Z,1.50
2018-09-22T03:16:23.901Z,1.70
2018-09-22T03:18:54.781Z,1.60
2018-09-22T03:21:25.595Z,1.40
2018-09-22T03:23:56.873Z,1.60
2018-09-22T03:26:27.722Z,1.47
2018-09-22T03:28:58.613Z,1.50
2018-09-22T03:31:30.262Z,1.30
2018-09-22T03:34:01.161Z,1.80
2018-09-22T03:36:32.313Z,1.50
2018-09-22T03:39:03.314Z,1.47
2018-09-22T03:41:34.134Z,1.57
2018-09-22T03:44:05.144Z,1.63
2018-09-22T03:46:35.981Z,1.40
2018-09-22T03:49:07.072Z,1.60
2018-09-22T03:51:38.721Z,1.40
2018-09-22T03:54:09.570Z,1.47
2018-09-22T03:56:41.736Z,1.37
2018-09-22T03:59:12.693Z,1.70
2018-09-22T04:01:43.613Z,1.40
2018-09-22T04:04:14.581Z,1.27
2018-09-22T04:06:45.958Z,1.57
2018-09-22T04:09:17.184Z,1.20
2018-09-22T04:11:48.193Z,1.50
2018-09-22T04:14:20.173Z,1.40
2018-09-22T04:16:51.053Z,1.40
2018-09-22T04:19:21.973Z,1.30
2018-09-22T04:21:52.802Z,1.60
2018-09-22T04:24:23.825Z,1.63
2018-09-22T04:26:54.637Z,1.80
2018-09-22T04:29:25.543Z,1.67
2018-09-22T04:31:56.422Z,1.67
2018-09-22T04:34:27.507Z,1.53
2018-09-22T04:36:58.341Z,1.50
2018-09-22T04:39:29.274Z,1.10
2018-09-22T04:42:00.104Z,2.00
2018-09-22T04:44:30.981Z,1.30
2018-09-22T04:47:01.890Z,1.43
2018-09-22T04:49:33.157Z,1.50
2018-09-22T04:52:04.061Z,1.40
2018-09-22T04:54:34.913Z,1.40
2018-09-22T04:57:05.797Z,1.60
2018-09-22T04:59:36.844Z,1.70
2018-09-22T05:02:07.774Z,1.83
2018-09-22T05:04:39.361Z,1.80
2018-09-22T05:07:10.289Z,1.70
2018-09-22T05:09:41.182Z,1.90
2018-09-22T05:12:12.221Z,2.10
2018-09-22T05:14:43.080Z,2.17
2018-09-22T05:17:13.975Z,2.00
2018-09-22T05:19:44.881Z,1.80
2018-09-22T05:22:15.881Z,1.70
2018-09-22T05:24:46.800Z,1.50
2018-09-22T05:27:17.581Z,1.70
2018-09-22T05:29:48.494Z,1.43
2018-09-22T05:32:19.338Z,1.70
2018-09-22T05:34:50.801Z,1.70
2018-09-22T05:37:21.821Z,1.50
2018-09-22T05:39:52.933Z,1.50
2018-09-22T05:42:23.821Z,1.80
2018-09-22T05:44:54.721Z,1.50
2018-09-22T05:47:25.645Z,1.50
2018-09-22T05:49:56.561Z,1.47
2018-09-22T05:52:27.360Z,1.57
2018-09-22T05:54:58.261Z,2.17
2018-09-22T05:57:29.142Z,2.30
2018-09-22T06:00:00.102Z,2.73
2018-09-22T06:02:31.301Z,3.00
2018-09-22T06:05:02.361Z,2.50
2018-09-22T06:07:33.482Z,2.33
2018-09-22T06:10:04.449Z,2.60
2018-09-22T06:12:35.323Z,2.00
2018-09-22T06:15:07.061Z,2.33
2018-09-22T06:17:37.894Z,2.30
2018-09-22T06:20:09.241Z,2.23
2018-09-22T06:22:40.402Z,2.30
2018-09-22T06:25:11.305Z,2.17
2018-09-22T06:27:42.160Z,2.70
2018-09-22T06:30:13.065Z,2.50
2018-09-22T06:32:44.189Z,2.77
2018-09-22T06:35:15.101Z,2.30
2018-09-22T06:37:45.978Z,2.83
2018-09-22T06:40:16.901Z,2.57
2018-09-22T06:42:48.624Z,2.30
2018-09-22T06:45:19.668Z,2.53
2018-09-22T06:47:51.073Z,2.10
2018-09-22T06:50:21.917Z,2.93
2018-09-22T06:52:52.712Z,2.83
2018-09-22T06:55:23.702Z,2.47
2018-09-22T06:57:54.593Z,3.13
2018-09-22T07:00:25.563Z,2.80
2018-09-22T07:02:56.549Z,2.43
2018-09-22T07:05:27.478Z,2.53
2018-09-22T07:07:58.341Z,2.20
2018-09-22T07:10:29.566Z,1.93
2018-09-22T07:13:00.457Z,2.20
2018-09-22T07:15:31.396Z,2.30
2018-09-22T07:18:02.332Z,1.90
2018-09-22T07:20:33.421Z,2.40
2018-09-22T07:23:09.433Z,1.83
2018-09-22T07:25:40.664Z,2.03
2018-09-22T07:28:11.954Z,1.90
2018-09-22T07:30:42.912Z,4.57
2018-09-22T07:33:13.761Z,2.57
2018-09-22T07:35:44.688Z,2.90
2018-09-22T07:38:15.534Z,1.87
2018-09-22T07:40:46.422Z,2.60
2018-09-22T07:43:17.336Z,2.23
2018-09-22T07:45:48.315Z,2.50
2018-09-22T07:48:19.194Z,2.27
2018-09-22T07:50:50.181Z,2.30
2018-09-22T07:53:21.041Z,2.50
2018-09-22T07:55:51.973Z,1.97
2018-09-22T07:58:22.844Z,2.20
2018-09-22T08:00:53.974Z,2.27
2018-09-22T08:03:24.862Z,2.00
2018-09-22T08:05:55.834Z,2.00
2018-09-22T08:08:26.666Z,2.23
2018-09-22T08:10:57.554Z,2.40
2018-09-22T08:13:28.502Z,2.57
2018-09-22T08:15:59.461Z,2.40
2018-09-22T08:18:30.401Z,2.33
2018-09-22T08:21:01.365Z,2.50
2018-09-22T08:23:32.163Z,2.70
2018-09-22T08:26:03.093Z,2.33
2018-09-22T08:28:35.094Z,2.30
2018-09-22T08:31:06.243Z,2.00
2018-09-22T08:33:37.237Z,1.70
2018-09-22T08:36:10.430Z,1.97
2018-09-22T08:38:41.191Z,1.63
2018-09-22T08:41:12.278Z,1.70
2018-09-22T08:43:49.824Z,2.40
2018-09-22T08:46:20.714Z,1.87
2018-09-22T08:48:51.604Z,1.70
2018-09-22T08:51:22.580Z,2.03
2018-09-22T08:53:53.553Z,2.73
2018-09-22T08:56:24.514Z,2.40
2018-09-22T08:58:55.387Z,2.10
2018-09-22T09:01:26.301Z,2.07
2018-09-22T09:03:57.154Z,3.10
2018-09-22T09:06:28.106Z,3.13
2018-09-22T09:08:59.742Z,2.10
2018-09-22T09:11:30.724Z,4.57
2018-09-22T09:14:02.040Z,2.00
2018-09-22T09:16:32.941Z,2.33
2018-09-22T09:19:03.894Z,1.57
2018-09-22T09:21:34.805Z,1.73
2018-09-22T09:24:05.761Z,1.90
2018-09-22T09:26:36.662Z,1.83
2018-09-22T09:29:07.576Z,1.73
2018-09-22T09:31:38.820Z,1.40
2018-09-22T09:34:09.751Z,1.87
2018-09-22T09:36:40.637Z,1.20
2018-09-22T09:39:11.662Z,1.40
2018-09-22T09:41:42.565Z,2.07
2018-09-22T09:44:13.502Z,1.63
2018-09-22T09:46:44.494Z,1.30
2018-09-22T09:49:15.402Z,2.50
2018-09-22T09:51:46.653Z,1.83
2018-09-22T09:54:17.522Z,2.33
2018-09-22T09:56:48.442Z,1.23
2018-09-22T09:59:19.402Z,1.30
2018-09-22T10:01:50.373Z,1.00
2018-09-22T10:04:21.263Z,1.17
2018-09-22T10:06:52.431Z,0.90
2018-09-22T10:09:23.533Z,1.10
2018-09-22T10:11:54.595Z,1.47
2018-09-22T10:14:25.384Z,1.33
2018-09-22T10:16:56.342Z,1.13
2018-09-22T10:19:27.214Z,1.03
2018-09-22T10:21:58.106Z,1.33
2018-09-22T10:24:29.217Z,0.97
2018-09-22T10:27:00.062Z,1.00
2018-09-22T10:29:30.923Z,0.70
2018-09-22T10:32:01.912Z,1.10
2018-09-22T10:34:32.733Z,1.10
2018-09-22T10:37:04.014Z,1.20
2018-09-22T10:39:36.580Z,1.10
2018-09-22T10:42:07.799Z,1.07
2018-09-22T10:44:38.860Z,1.00
2018-09-22T10:47:10.593Z,1.00
2018-09-22T10:49:43.124Z,1.00
2018-09-22T10:52:14.255Z,1.50
2018-09-22T10:54:45.606Z,0.90
2018-09-22T10:57:16.571Z,1.00
2018-09-22T10:59:47.454Z,1.00
2018-09-22T11:02:18.495Z,0.80
2018-09-22T11:04:49.980Z,0.97
2018-09-22T11:07:20.899Z,1.00
2018-09-22T11:09:51.852Z,0.90
2018-09-22T11:12:22.756Z,1.03
2018-09-22T11:14:53.740Z,1.10
2018-09-22T11:17:24.670Z,1.63
2018-09-22T11:19:55.581Z,1.67
2018-09-22T11:22:26.781Z,1.90
2018-09-22T11:24:57.632Z,1.50
2018-09-22T11:27:28.981Z,0.90
2018-09-22T11:29:59.934Z,0.87
2018-09-22T11:32:30.969Z,1.10
2018-09-22T11:35:01.810Z,0.80
2018-09-22T11:37:33.729Z,1.17
2018-09-22T11:40:04.637Z,1.00
2018-09-22T11:42:35.544Z,0.90
2018-09-22T11:45:06.637Z,1.20
2018-09-22T11:47:37.502Z,1.00
2018-09-22T11:50:08.585Z,1.00
2018-09-22T11:52:39.693Z,0.90
2018-09-22T11:55:10.834Z,1.00
2018-09-22T11:57:41.814Z,1.13
2018-09-22T12:00:12.832Z,1.20
2018-09-22T12:02:44.696Z,1.10
2018-09-22T12:05:15.662Z,0.90
2018-09-22T12:07:46.576Z,1.17
2018-09-22T12:10:17.499Z,1.00
2018-09-22T12:12:48.452Z,0.97
2018-09-22T12:15:19.393Z,1.20
2018-09-22T12:17:50.321Z,1.23
2018-09-22T12:20:21.221Z,0.93
2018-09-22T12:22:53.124Z,1.00
2018-09-22T12:25:24.038Z,2.23
2018-09-22T12:27:55.646Z,2.03
2018-09-22T12:30:26.938Z,4.13
2018-09-22T12:33:00.310Z,1.50
2018-09-22T12:35:31.153Z,1.20
2018-09-22T12:38:02.062Z,1.00
2018-09-22T12:40:33.694Z,1.23
2018-09-22T12:43:04.681Z,1.30
2018-09-22T12:45:35.549Z,1.00
2018-09-22T12:48:06.882Z,1.10
2018-09-22T12:50:37.773Z,1.30
2018-09-22T12:53:10.802Z,1.53
2018-09-22T12:55:41.797Z,1.10
2018-09-22T12:58:12.784Z,0.80
2018-09-22T13:00:43.743Z,1.30
2018-09-22T13:03:14.633Z,1.70
2018-09-22T13:05:45.552Z,1.10
2018-09-22T13:08:16.816Z,1.20
2018-09-22T13:10:48.425Z,1.20
2018-09-22T13:13:19.556Z,0.90
2018-09-22T13:15:50.385Z,1.10
2018-09-22T13:18:21.483Z,1.10
2018-09-22T13:20:52.921Z,0.50
2018-09-22T13:23:24.216Z,0.67
2018-09-22T13:25:55.525Z,0.80
2018-09-22T13:28:26.453Z,0.80
2018-09-22T13:30:57.293Z,0.73
2018-09-22T13:33:28.193Z,0.50
2018-09-22T13:35:59.102Z,0.70
2018-09-22T13:38:30.065Z,0.70
2018-09-22T13:41:00.889Z,0.80
2018-09-22T13:43:31.785Z,0.70
2018-09-22T13:46:02.740Z,1.00
2018-09-22T13:48:34.017Z,0.90
2018-09-22T13:51:05.044Z,1.00
2018-09-22T13:53:35.882Z,0.90
2018-09-22T13:56:06.826Z,1.00
2018-09-22T13:58:37.851Z,0.90
2018-09-22T14:01:08.869Z,1.20
2018-09-22T14:03:39.782Z,1.00
2018-09-22T14:06:10.786Z,1.17
2018-09-22T14:08:41.815Z,1.30
2018-09-22T14:11:13.657Z,1.20
2018-09-22T14:13:44.640Z,1.33
2018-09-22T14:16:15.662Z,1.20
2018-09-22T14:18:46.902Z,1.30
2018-09-22T14:21:18.446Z,1.50
2018-09-22T14:23:49.349Z,1.00
2018-09-22T14:26:20.361Z,1.40
2018-09-22T14:28:52.269Z,1.17
2018-09-22T14:31:23.494Z,1.27
2018-09-22T14:33:54.480Z,1.47
2018-09-22T14:36:25.462Z,1.30
2018-09-22T14:38:56.397Z,1.10
2018-09-22T14:41:28.104Z,1.40
2018-09-22T14:43:59.044Z,1.27
2018-09-22T14:46:29.974Z,1.30
2018-09-22T14:49:00.910Z,1.30
2018-09-22T14:51:32.596Z,1.40
2018-09-22T14:54:03.678Z,1.50
2018-09-22T14:56:35.293Z,1.20
2018-09-22T14:59:06.358Z,1.40
2018-09-22T15:01:37.348Z,1.20
2018-09-22T15:04:08.346Z,1.20
2018-09-22T15:06:39.402Z,1.07
2018-09-22T15:09:10.325Z,1.10
2018-09-22T15:11:41.315Z,1.40
2018-09-22T15:14:12.314Z,1.10
2018-09-22T15:16:44.002Z,1.10
2018-09-22T15:19:15.124Z,1.00
2018-09-22T15:21:46.175Z,1.00
2018-09-22T15:24:17.066Z,1.10
2018-09-22T15:26:47.990Z,1.20
2018-09-22T15:29:19.095Z,1.13
2018-09-22T15:31:50.042Z,1.10
2018-09-22T15:34:20.996Z,1.30
2018-09-22T15:36:51.984Z,1.30
2018-09-22T15:39:23.870Z,1.27
2018-09-22T15:41:54.828Z,1.50
2018-09-22T15:44:26.322Z,1.40
2018-09-22T15:46:57.613Z,1.33
2018-09-22T15:49:28.600Z,1.47
2018-09-22T15:51:59.597Z,1.33
2018-09-22T15:54:30.490Z,1.20
2018-09-22T15:57:02.312Z,1.20
2018-09-22T15:59:33.918Z,1.20
2018-09-22T16:02:05.237Z,1.50
2018-09-22T16:04:36.145Z,1.47
2018-09-22T16:07:07.289Z,1.30
2018-09-22T16:09:38.230Z,1.23
2018-09-22T16:12:09.836Z,1.30
2018-09-22T16:14:41.777Z,1.43
2018-09-22T16:17:13.410Z,1.33
2018-09-22T16:19:44.392Z,1.27
2018-09-22T16:22:15.587Z,1.20
2018-09-22T16:24:46.485Z,1.07
2018-09-22T16:27:17.979Z,0.90
2018-09-22T16:29:48.813Z,1.00
2018-09-22T16:32:19.825Z,1.40
2018-09-22T16:34:50.791Z,1.00
2018-09-22T16:37:21.886Z,1.10
2018-09-22T16:39:53.599Z,1.17
2018-09-22T16:42:24.824Z,1.37
2018-09-22T16:44:55.809Z,1.17
2018-09-22T16:47:26.912Z,1.30
2018-09-22T16:49:58.298Z,1.50
2018-09-22T16:52:29.621Z,1.57
2018-09-22T16:55:00.596Z,2.10
2018-09-22T16:57:31.535Z,1.80
2018-09-22T17:00:02.544Z,1.80
2018-09-22T17:02:33.796Z,1.60
2018-09-22T17:05:05.269Z,1.20
2018-09-22T17:07:36.194Z,1.27
2018-09-22T17:10:07.257Z,1.40
2018-09-22T17:12:38.245Z,1.10
2018-09-22T17:15:09.574Z,1.30
2018-09-22T17:17:40.550Z,1.40
2018-09-22T17:20:11.465Z,1.60
2018-09-22T17:22:42.956Z,1.53
2018-09-22T17:25:13.860Z,1.37
2018-09-22T17:27:45.766Z,1.40
2018-09-22T17:30:18.255Z,1.30
2018-09-22T17:32:49.232Z,1.40
2018-09-22T17:35:20.197Z,1.60
2018-09-22T17:37:51.831Z,1.00
2018-09-22T17:40:22.771Z,1.70
2018-09-22T17:42:53.745Z,1.30
2018-09-22T17:45:24.785Z,1.30
2018-09-22T17:47:56.097Z,1.10
2018-09-22T17:50:27.045Z,1.53
2018-09-22T17:52:57.985Z,1.40
2018-09-22T17:55:29.131Z,1.30
2018-09-22T17:58:00.065Z,1.60
2018-09-22T18:00:31.754Z,1.17
2018-09-22T18:03:02.823Z,1.40
2018-09-22T18:05:33.773Z,1.40
2018-09-22T18:08:04.727Z,2.57
2018-09-22T18:10:36.522Z,1.30
2018-09-22T18:13:08.182Z,1.30
2018-09-22T18:15:39.327Z,1.50
2018-09-22T18:18:10.310Z,1.17
2018-09-22T18:20:41.305Z,1.50
2018-09-22T18:23:12.417Z,1.23
2018-09-22T18:25:43.445Z,1.13
2018-09-22T18:28:14.460Z,1.27
2018-09-22T18:30:45.477Z,1.47
2018-09-22T18:33:18.004Z,1.40
2018-09-22T18:35:49.202Z,1.40
2018-09-22T18:38:21.105Z,1.47
2018-09-22T18:40:53.532Z,1.30
2018-09-22T18:43:24.471Z,1.23
2018-09-22T18:45:57.424Z,1.30
2018-09-22T18:48:28.376Z,1.37
2018-09-22T18:50:59.777Z,1.43
2018-09-22T18:53:32.255Z,1.43
2018-09-22T18:56:03.278Z,1.50
2018-09-22T18:58:34.206Z,1.50
2018-09-22T19:01:06.253Z,1.50
2018-09-22T19:03:37.278Z,1.50
2018-09-22T19:06:09.009Z,1.40
2018-09-22T19:08:39.881Z,1.67
2018-09-22T19:11:12.402Z,1.50
2018-09-22T19:13:50.763Z,1.53
2018-09-22T19:16:28.273Z,1.87
2018-09-22T19:19:04.676Z,1.70
2018-09-22T19:22:12.440Z,1.80
2018-09-22T19:24:46.457Z,1.40
2018-09-22T19:27:24.597Z,1.50
2018-09-22T19:31:03.881Z,2.17
2018-09-22T19:33:37.693Z,2.00
2018-09-22T19:36:12.936Z,2.33
2018-09-22T19:38:48.831Z,2.10
2018-09-22T19:41:25.507Z,2.10
2018-09-22T19:44:04.597Z,1.90
2018-09-22T19:46:40.597Z,2.10
2018-09-22T19:49:52.544Z,2.67
2018-09-22T19:52:29.394Z,2.20
2018-09-22T19:55:00.405Z,1.80
2018-09-22T19:57:32.707Z,1.87
2018-09-22T20:00:04.830Z,2.03
2018-09-22T20:02:36.561Z,2.30
2018-09-22T20:05:08.465Z,2.00
2018-09-22T20:07:39.965Z,2.20
2018-09-22T20:10:11.024Z,2.30
2018-09-22T20:12:42.327Z,1.70
2018-09-22T20:15:13.279Z,1.83
2018-09-22T20:17:45.102Z,1.77
2018-09-22T20:20:16.022Z,1.60
2018-09-22T20:22:49.980Z,1.70
2018-09-22T20:25:21.014Z,1.80
2018-09-22T20:27:52.320Z,1.60
2018-09-22T20:30:24.369Z,1.70
2018-09-22T20:32:55.321Z,1.73
2018-09-22T20:35:26.589Z,1.70
2018-09-22T20:37:58.400Z,1.90
2018-09-22T20:40:30.383Z,2.27
2018-09-22T20:43:01.302Z,1.90
2018-09-22T20:45:32.689Z,1.90
2018-09-22T20:48:04.992Z,2.00
2018-09-22T20:50:36.002Z,1.73
2018-09-22T20:53:07.057Z,2.30
2018-09-22T20:55:37.973Z,2.33
2018-09-22T20:58:09.554Z,2.47
2018-09-22T21:00:40.542Z,2.20
2018-09-22T21:03:11.481Z,2.60
2018-09-22T21:05:42.442Z,2.40
2018-09-22T21:08:13.388Z,2.30
2018-09-22T21:10:44.290Z,2.43
2018-09-22T21:13:15.192Z,2.40
2018-09-22T21:15:46.225Z,2.47
2018-09-22T21:18:17.133Z,2.40
2018-09-22T21:20:48.050Z,2.70
2018-09-22T21:23:18.942Z,2.50
2018-09-22T21:25:50.294Z,2.27
2018-09-22T21:28:21.122Z,2.40
2018-09-22T21:30:52.044Z,2.30
2018-09-22T21:33:22.882Z,2.50
2018-09-22T21:35:53.801Z,2.20
2018-09-22T21:38:24.782Z,2.20
2018-09-22T21:40:56.323Z,2.10
2018-09-22T21:43:27.576Z,2.60
2018-09-22T21:45:58.562Z,2.70
2018-09-22T21:48:29.482Z,2.57
2018-09-22T21:51:00.402Z,2.20
2018-09-22T21:53:31.364Z,2.30
2018-09-22T21:56:03.233Z,2.33
2018-09-22T21:58:34.521Z,2.23
2018-09-22T22:01:17.134Z,2.47
2018-09-22T22:03:48.031Z,1.83
2018-09-22T22:06:19.005Z,2.23
2018-09-22T22:08:49.833Z,2.30
2018-09-22T22:11:20.725Z,1.80
2018-09-22T22:13:51.643Z,2.43
2018-09-22T22:16:22.605Z,2.40
2018-09-22T22:18:53.484Z,2.27
2018-09-22T22:21:24.382Z,2.20
2018-09-22T22:23:55.200Z,2.30
2018-09-22T22:26:26.161Z,2.37
2018-09-22T22:28:57.082Z,2.43
2018-09-22T22:31:27.993Z,2.50
2018-09-22T22:33:58.861Z,2.40
2018-09-22T22:36:29.793Z,2.20
2018-09-22T22:39:00.764Z,2.30
2018-09-22T22:41:31.655Z,2.57
2018-09-22T22:44:02.574Z,2.60
2018-09-22T22:46:33.602Z,2.27
2018-09-22T22:49:04.481Z,2.83
2018-09-22T22:51:35.413Z,2.57
2018-09-22T22:54:06.282Z,2.73
2018-09-22T22:56:37.182Z,2.60
2018-09-22T22:59:08.145Z,2.33
2018-09-22T23:01:39.057Z,2.23
2018-09-22T23:04:09.954Z,2.67
2018-09-22T23:06:40.921Z,2.57
2018-09-22T23:09:11.813Z,2.83
2018-09-22T23:11:42.742Z,2.30
2018-09-22T23:14:13.822Z,2.60
2018-09-22T23:16:44.766Z,2.30
2018-09-22T23:19:15.701Z,2.70
2018-09-22T23:21:46.753Z,2.80
2018-09-22T23:24:17.601Z,2.50
2018-09-22T23:26:48.615Z,1.97
2018-09-22T23:29:20.023Z,2.40
2018-09-22T23:31:51.169Z,2.10
2018-09-22T23:34:22.721Z,2.50
2018-09-22T23:36:53.684Z,3.37
2018-09-22T23:39:24.539Z,2.70
2018-09-22T23:41:55.461Z,2.67
2018-09-22T23:44:26.341Z,2.23
2018-09-22T23:46:57.312Z,1.90
2018-09-22T23:49:28.213Z,1.90
2018-09-22T23:51:59.141Z,1.77
2018-09-22T23:54:31.683Z,1.90
2018-09-22T23:57:02.777Z,2.07
2018-09-22T23:59:33.702Z,1.80
